Terminal Aerodrome Forecast
Issued by NWS

Home | Current Version | Previous Version | Text Only | Print | Product List | Glossary On
Versions: 1 2 3 4 5 6 7 8 9 10 11 12 13 14 15
000
FTUS41 KAKQ 291307 AAA
TAFPHF
TAF AMD
KPHF 291307Z 2913/3012 23012KT P6SM BKN015
     FM291500 23012G18KT P6SM SCT040 BKN250
     FM300000 22009KT P6SM SCT250=

USA.gov is the U.S. government's official web portal to all federal, state and local government web resources and services.